Time;durP1;ratioP1;P1;durP2;ratioP2;P2;SDS_P1;SDS_P2;PMS_P1;PMS_P2;Temp;Humidity;BMP_temperature;BMP_pressure;BME280_temperature;BME280_humidity;BME280_pressure;Samples;Min_cycle;Max_cycle;Signal;HPM_P1;HPM_P2
2022/06/07 00:00:32;;;;;;;;;;;;;;;19.62;nan;99449.66;4963539;28;19996;-75
2022/06/07 00:02:58;;;;;;;;;;;;;;;19.48;nan;99432.78;4961796;28;20013;-75
2022/06/07 00:05:23;;;;;;;;;;;;;;;19.55;nan;99419.41;4962489;28;19957;-76
2022/06/07 00:07:49;;;;;;;;;;;;;;;19.65;nan;99411.81;4962523;28;19963;-76
2022/06/07 00:10:14;;;;;;;;;;;;;;;19.70;nan;99403.97;4961350;28;19918;-76
2022/06/07 00:12:40;;;;;;;;;;;;;;;19.73;nan;99394.72;4963996;28;19918;-75
2022/06/07 00:15:06;;;;;;;;;;;;;;;19.77;nan;99387.91;4960557;28;19922;-75
2022/06/07 00:17:31;;;;;;;;;;;;;;;19.82;nan;99402.34;4963125;28;19925;-76
2022/06/07 00:19:56;;;;;;;;;;;;;;;19.80;nan;99416.94;4961617;28;20267;-76
2022/06/07 00:22:22;;;;;;;;;;;;;;;19.59;nan;99417.97;4968193;28;19925;-75
2022/06/07 00:24:47;;;;;;;;;;;;;;;19.46;nan;99407.25;4962921;28;19925;-76
2022/06/07 00:27:13;;;;;;;;;;;;;;;19.42;nan;99396.09;4960919;28;19918;-76
2022/06/07 00:29:39;;;;;;;;;;;;;;;19.32;nan;99394.84;4978493;28;19925;-76
2022/06/07 00:32:05;;;;;;;;;;;;;;;19.30;nan;99396.88;4959762;28;19918;-75
2022/06/07 00:34:31;;;;;;;;;;;;;;;19.34;nan;99398.94;4963002;28;19961;-76
2022/06/07 00:36:56;;;;;;;;;;;;;;;19.39;nan;99387.63;4961309;28;20398;-75
2022/06/07 00:39:21;;;;;;;;;;;;;;;19.43;nan;99386.22;4960527;28;20371;-75
2022/06/07 00:41:47;;;;;;;;;;;;;;;19.49;nan;99380.09;4962820;28;20340;-75
2022/06/07 00:44:23;;;;;;;;;;;;;;;19.55;nan;99384.63;4975141;28;19953;-76
2022/06/07 00:46:49;;;;;;;;;;;;;;;19.55;nan;99379.28;4962391;28;19918;-76
2022/06/07 00:49:16;;;;;;;;;;;;;;;19.35;nan;99379.19;4959409;28;19925;-75
2022/06/07 00:51:44;;;;;;;;;;;;;;;19.21;nan;99372.16;4968602;28;19922;-77
2022/06/07 00:54:10;;;;;;;;;;;;;;;19.07;nan;99365.97;4978192;28;19941;-75
2022/06/07 00:56:35;;;;;;;;;;;;;;;19.09;nan;99363.91;4966951;28;19918;-76
2022/06/07 00:59:03;;;;;;;;;;;;;;;19.15;nan;99354.25;4963133;28;19949;-76
2022/06/07 01:01:31;;;;;;;;;;;;;;;19.20;nan;99354.50;4977622;28;19966;-76
2022/06/07 01:03:56;;;;;;;;;;;;;;;19.21;nan;99354.25;4959433;28;19918;-75
2022/06/07 01:11:50;;;;;;;;;;;;;;;19.34;nan;99344.63;4960141;28;19918;-76
2022/06/07 01:14:17;;;;;;;;;;;;;;;19.32;nan;99341.34;4961771;28;19922;-75
2022/06/07 01:16:43;;;;;;;;;;;;;;;19.37;nan;99355.75;4960417;28;19925;-74
2022/06/07 01:19:09;;;;;;;;;;;;;;;19.29;nan;99349.75;4962309;28;19937;-76
2022/06/07 01:21:40;;;;;;;;;;;;;;;19.22;nan;99350.56;4962124;28;19918;-75
2022/06/07 01:24:08;;;;;;;;;;;;;;;19.29;nan;99347.06;4960402;28;20275;-76
2022/06/07 01:26:59;;;;;;;;;;;;;;;19.31;nan;99339.69;4958420;28;19918;-75
2022/06/07 01:29:24;;;;;;;;;;;;;;;19.27;nan;99343.78;4960511;28;19925;-76
2022/06/07 01:31:50;;;;;;;;;;;;;;;19.22;nan;99329.16;4976059;28;19925;-75
2022/06/07 01:34:19;;;;;;;;;;;;;;;19.02;nan;99338.19;4960789;28;20031;-75
2022/06/07 01:36:45;;;;;;;;;;;;;;;18.92;nan;99329.72;4959547;28;19918;-76
2022/06/07 01:41:54;;;;;;;;;;;;;;;18.78;nan;99319.00;4961595;28;20054;-75
2022/06/07 01:44:29;;;;;;;;;;;;;;;18.86;nan;99320.66;4960769;28;19922;-76
2022/06/07 01:46:57;;;;;;;;;;;;;;;18.93;nan;99316.16;4960334;28;20005;-76
2022/06/07 01:49:23;;;;;;;;;;;;;;;19.00;nan;99311.66;4976253;28;19918;-75
2022/06/07 01:51:50;;;;;;;;;;;;;;;19.02;nan;99309.59;4992118;28;19918;-75
2022/06/07 01:54:15;;;;;;;;;;;;;;;18.99;nan;99304.66;4962931;28;19925;-76
2022/06/07 01:56:41;;;;;;;;;;;;;;;19.02;nan;99301.59;4978053;28;19925;-76
2022/06/07 01:59:07;;;;;;;;;;;;;;;19.03;nan;99303.22;4966574;28;19981;-75
2022/06/07 02:01:33;;;;;;;;;;;;;;;19.10;nan;99312.06;4962505;28;19918;-75
2022/06/07 02:03:59;;;;;;;;;;;;;;;19.12;nan;99304.69;4963947;28;20338;-75
2022/06/07 02:06:24;;;;;;;;;;;;;;;19.19;nan;99299.34;4964063;28;20481;-76
2022/06/07 02:08:49;;;;;;;;;;;;;;;19.22;nan;99286.38;4963744;28;19925;-76
2022/06/07 02:11:23;;;;;;;;;;;;;;;19.28;nan;99278.53;4964588;28;19918;-75
2022/06/07 02:13:56;;;;;;;;;;;;;;;19.30;nan;99268.47;4963573;28;20315;-76
2022/06/07 02:16:23;;;;;;;;;;;;;;;19.23;nan;99274.66;4963665;28;19976;-75
2022/06/07 02:18:48;;;;;;;;;;;;;;;19.18;nan;99282.47;4962218;28;19998;-75
2022/06/07 02:21:24;;;;;;;;;;;;;;;19.18;nan;99281.63;4964260;28;19918;-75
2022/06/07 02:23:49;;;;;;;;;;;;;;;19.18;nan;99276.28;4963272;28;19929;-76
2022/06/07 02:26:15;;;;;;;;;;;;;;;19.17;nan;99278.13;4974761;28;19918;-75
2022/06/07 02:28:42;;;;;;;;;;;;;;;19.18;nan;99274.44;4990308;28;19918;-75
2022/06/07 02:31:09;;;;;;;;;;;;;;;19.16;nan;99268.47;4993264;28;19929;-75
2022/06/07 02:33:36;;;;;;;;;;;;;;;19.15;nan;99261.47;4962775;28;19981;-76
2022/06/07 02:36:01;;;;;;;;;;;;;;;19.15;nan;99256.09;4964659;28;19933;-75
2022/06/07 02:38:27;;;;;;;;;;;;;;;19.18;nan;99255.72;4963125;28;19918;-75
2022/06/07 02:40:53;;;;;;;;;;;;;;;19.23;nan;99263.94;4963649;28;20350;-76
2022/06/07 02:43:19;;;;;;;;;;;;;;;19.27;nan;99255.50;4963652;28;20025;-76
2022/06/07 02:45:44;;;;;;;;;;;;;;;19.28;nan;99254.47;4977486;28;20009;-76
2022/06/07 02:48:10;;;;;;;;;;;;;;;19.28;nan;99243.78;4965745;28;19925;-76
2022/06/07 02:50:36;;;;;;;;;;;;;;;19.26;nan;99253.88;4977123;28;20375;-75
2022/06/07 02:53:01;;;;;;;;;;;;;;;19.22;nan;99262.28;4982741;28;19926;-75
2022/06/07 02:55:30;;;;;;;;;;;;;;;19.20;nan;99250.97;4961534;28;19981;-75
2022/06/07 02:58:02;;;;;;;;;;;;;;;19.19;nan;99245.84;4977032;28;19969;-76
2022/06/07 03:00:29;;;;;;;;;;;;;;;19.20;nan;99242.94;4963404;28;19925;-76
2022/06/07 03:02:55;;;;;;;;;;;;;;;19.18;nan;99245.03;4978276;28;19914;-76
2022/06/07 03:05:21;;;;;;;;;;;;;;;19.19;nan;99245.84;4975183;28;20379;-75
2022/06/07 03:07:52;;;;;;;;;;;;;;;19.22;nan;99248.09;4958936;28;19929;-76
2022/06/07 03:10:18;;;;;;;;;;;;;;;19.23;nan;99250.56;4959822;28;19918;-75
2022/06/07 03:12:44;;;;;;;;;;;;;;;19.22;nan;99246.25;4979463;28;19945;-74
2022/06/07 03:15:14;;;;;;;;;;;;;;;19.22;nan;99246.25;4977315;28;19918;-74
2022/06/07 03:17:41;;;;;;;;;;;;;;;19.26;nan;99251.19;4963970;28;20402;-74
2022/06/07 03:20:09;;;;;;;;;;;;;;;19.26;nan;99241.31;4976611;28;19918;-74
2022/06/07 03:22:36;;;;;;;;;;;;;;;19.27;nan;99244.78;4966550;28;19918;-75
2022/06/07 03:25:05;;;;;;;;;;;;;;;19.32;nan;99239.69;4960703;28;19933;-75
2022/06/07 03:27:32;;;;;;;;;;;;;;;19.32;nan;99239.69;4963022;28;19933;-76
2022/06/07 03:29:59;;;;;;;;;;;;;;;19.30;nan;99241.72;4977443;28;19943;-75
2022/06/07 03:32:25;;;;;;;;;;;;;;;19.26;nan;99251.19;4962234;28;20013;-75
2022/06/07 03:34:50;;;;;;;;;;;;;;;19.25;nan;99260.25;4946444;28;20004;-75
2022/06/07 03:37:16;;;;;;;;;;;;;;;19.27;nan;99263.53;4977259;28;20009;-76
2022/06/07 03:39:43;;;;;;;;;;;;;;;19.25;nan;99260.25;4962629;28;20020;-76
2022/06/07 03:42:09;;;;;;;;;;;;;;;19.29;nan;99264.16;4976142;28;19918;-76
2022/06/07 03:44:34;;;;;;;;;;;;;;;19.33;nan;99263.53;4979263;28;20497;-75
2022/06/07 03:47:09;;;;;;;;;;;;;;;19.35;nan;99263.31;4976191;28;20641;-75
2022/06/07 03:49:34;;;;;;;;;;;;;;;19.37;nan;99269.31;4964677;28;19964;-75
2022/06/07 03:52:00;;;;;;;;;;;;;;;19.32;nan;99261.06;4963625;28;19922;-75
2022/06/07 03:54:28;;;;;;;;;;;;;;;19.26;nan;99262.72;4962000;28;20052;-75
2022/06/07 03:56:54;;;;;;;;;;;;;;;19.23;nan;99274.66;4960914;28;19918;-75
2022/06/07 03:59:22;;;;;;;;;;;;;;;19.20;nan;99279.59;4961200;28;20490;-75
2022/06/07 04:01:50;;;;;;;;;;;;;;;19.14;nan;99275.84;4961704;28;20008;-75
2022/06/07 04:04:16;;;;;;;;;;;;;;;19.11;nan;99276.28;4961711;28;19925;-75
2022/06/07 04:09:39;;;;;;;;;;;;;;;19.16;nan;99281.00;4967077;28;19926;-75
2022/06/07 04:12:10;;;;;;;;;;;;;;;19.15;nan;99276.69;4978912;28;19918;-75
2022/06/07 04:14:37;;;;;;;;;;;;;;;19.18;nan;99277.13;4959436;28;19918;-76
2022/06/07 04:17:03;;;;;;;;;;;;;;;19.22;nan;99275.66;4978043;28;19981;-76
2022/06/07 04:19:28;;;;;;;;;;;;;;;19.29;nan;99277.53;4976122;28;19921;-75
2022/06/07 04:21:54;;;;;;;;;;;;;;;19.30;nan;99279.19;4967427;28;20461;-75
2022/06/07 04:24:30;;;;;;;;;;;;;;;19.35;nan;99271.34;4961991;28;19974;-75
2022/06/07 04:26:57;;;;;;;;;;;;;;;19.39;nan;99264.56;4959859;28;19924;-76
2022/06/07 04:29:23;;;;;;;;;;;;;;;19.44;nan;99267.47;4960748;28;20008;-74
2022/06/07 04:31:51;;;;;;;;;;;;;;;19.50;nan;99258.59;4961070;28;19956;-76
2022/06/07 04:34:21;;;;;;;;;;;;;;;19.53;nan;99266.22;4975996;28;19961;-74
2022/06/07 04:36:47;;;;;;;;;;;;;;;19.49;nan;99263.16;4961379;28;19918;-76
2022/06/07 04:39:16;;;;;;;;;;;;;;;19.47;nan;99269.75;4959875;28;19964;-75
2022/06/07 04:41:52;;;;;;;;;;;;;;;19.49;nan;99278.41;4961000;28;19921;-75
2022/06/07 04:44:23;;;;;;;;;;;;;;;19.49;nan;99271.19;4960735;28;20279;-75
2022/06/07 04:46:50;;;;;;;;;;;;;;;19.53;nan;99268.91;4961070;28;20298;-75
2022/06/07 04:49:17;;;;;;;;;;;;;;;19.55;nan;99269.53;4961819;28;19915;-75
2022/06/07 04:51:42;;;;;;;;;;;;;;;19.52;nan;99261.91;4979202;28;19942;-76
2022/06/07 04:54:17;;;;;;;;;;;;;;;19.51;nan;99268.28;4964456;28;19924;-75
2022/06/07 04:56:45;;;;;;;;;;;;;;;19.49;nan;99268.50;4962038;28;19918;-75
2022/06/07 04:59:11;;;;;;;;;;;;;;;19.54;nan;99270.56;4962922;28;19965;-74
2022/06/07 05:01:44;;;;;;;;;;;;;;;19.51;nan;99270.97;4990935;28;19917;-74
2022/06/07 05:04:22;;;;;;;;;;;;;;;19.50;nan;99282.69;4960468;28;19957;-75
2022/06/07 05:06:48;;;;;;;;;;;;;;;19.48;nan;99288.28;4961035;28;19964;-76
2022/06/07 05:09:24;;;;;;;;;;;;;;;19.50;nan;99290.72;4976331;28;19929;-75
2022/06/07 05:11:55;;;;;;;;;;;;;;;19.56;nan;99284.53;4960106;28;19925;-75
2022/06/07 05:14:22;;;;;;;;;;;;;;;19.64;nan;99281.66;4976340;28;20331;-75
2022/06/07 05:16:50;;;;;;;;;;;;;;;19.67;nan;99291.97;4962326;28;20370;-76
2022/06/07 05:19:21;;;;;;;;;;;;;;;19.70;nan;99288.88;4960115;28;19949;-76
2022/06/07 05:21:50;;;;;;;;;;;;;;;19.74;nan;99292.75;4964278;28;19918;-75
2022/06/07 05:24:16;;;;;;;;;;;;;;;19.82;nan;99292.56;4960363;28;20438;-76
2022/06/07 05:26:55;;;;;;;;;;;;;;;19.87;nan;99287.38;4977775;28;19925;-75
2022/06/07 05:29:30;;;;;;;;;;;;;;;19.95;nan;99295.22;4977434;28;20268;-76
2022/06/07 05:31:55;;;;;;;;;;;;;;;20.02;nan;99284.50;4979702;28;19961;-76
2022/06/07 05:34:21;;;;;;;;;;;;;;;20.16;nan;99283.41;4979714;28;20294;-77
2022/06/07 05:36:50;;;;;;;;;;;;;;;20.30;nan;99293.06;4980592;28;19984;-75
2022/06/07 05:39:28;;;;;;;;;;;;;;;20.41;nan;99294.28;4963858;28;20009;-73
2022/06/07 05:41:57;;;;;;;;;;;;;;;20.51;nan;99293.81;4947685;28;19922;-72
2022/06/07 05:44:24;;;;;;;;;;;;;;;20.62;nan;99293.13;4995995;28;19918;-73
2022/06/07 05:46:52;;;;;;;;;;;;;;;20.69;nan;99291.25;4963125;28;20013;-73
2022/06/07 05:49:37;;;;;;;;;;;;;;;20.73;nan;99292.50;4963429;28;19922;-73
2022/06/07 05:52:07;;;;;;;;;;;;;;;20.84;nan;99289.13;4967410;28;19918;-72
2022/06/07 05:54:35;;;;;;;;;;;;;;;20.89;nan;99291.16;4979764;28;19918;-73
2022/06/07 05:57:02;;;;;;;;;;;;;;;20.88;nan;99297.56;4963821;28;20661;-72
2022/06/07 05:59:28;;;;;;;;;;;;;;;20.94;nan;99302.06;4963001;28;20695;-72
2022/06/07 06:01:54;;;;;;;;;;;;;;;20.96;nan;99297.31;4982417;28;19956;-72
2022/06/07 06:04:24;;;;;;;;;;;;;;;20.95;nan;99293.81;4962096;28;20038;-72
2022/06/07 06:06:53;;;;;;;;;;;;;;;21.04;nan;99294.34;4975819;28;20017;-73
2022/06/07 06:12:05;;;;;;;;;;;;;;;21.10;nan;99298.84;4978091;28;19953;-75
2022/06/07 06:14:39;;;;;;;;;;;;;;;21.18;nan;99299.47;4981289;28;19924;-73
2022/06/07 06:17:13;;;;;;;;;;;;;;;21.23;nan;99305.00;4963697;28;19948;-74
2022/06/07 06:19:45;;;;;;;;;;;;;;;21.24;nan;99308.50;4976392;28;19929;-74
2022/06/07 06:22:13;;;;;;;;;;;;;;;21.22;nan;99313.25;4964040;28;20247;-74
2022/06/07 06:24:43;;;;;;;;;;;;;;;21.24;nan;99313.88;4977261;28;19922;-74
2022/06/07 06:27:09;;;;;;;;;;;;;;;21.36;nan;99314.81;4964166;28;19925;-74
2022/06/07 06:29:40;;;;;;;;;;;;;;;21.48;nan;99306.88;4960997;28;19942;-76
2022/06/07 06:32:06;;;;;;;;;;;;;;;21.55;nan;99303.09;4947322;28;19929;-76
2022/06/07 06:35:10;;;;;;;;;;;;;;;21.60;nan;99315.88;4961339;28;20054;-76
2022/06/07 06:37:48;;;;;;;;;;;;;;;21.68;nan;99306.72;4961939;28;19918;-76
2022/06/07 06:40:16;;;;;;;;;;;;;;;21.81;nan;99303.88;4975714;28;19918;-76
2022/06/07 06:42:52;;;;;;;;;;;;;;;21.92;nan;99309.34;4962025;28;19922;-76
2022/06/07 06:45:36;;;;;;;;;;;;;;;22.01;nan;99312.63;4963617;28;19925;-76
2022/06/07 06:48:10;;;;;;;;;;;;;;;22.01;nan;99318.81;4959883;28;19918;-76
2022/06/07 06:50:37;;;;;;;;;;;;;;;22.04;nan;99323.72;4960405;28;19925;-76
2022/06/07 06:53:03;;;;;;;;;;;;;;;22.13;nan;99321.59;4946642;28;19918;-76
2022/06/07 06:55:29;;;;;;;;;;;;;;;22.14;nan;99325.91;4961599;28;19925;-75
2022/06/07 06:57:55;;;;;;;;;;;;;;;22.22;nan;99328.28;4978124;28;19938;-74
2022/06/07 07:00:20;;;;;;;;;;;;;;;22.29;nan;99326.38;4963870;28;19918;-76
2022/06/07 07:02:48;;;;;;;;;;;;;;;22.31;nan;99318.09;4980514;28;19968;-76
2022/06/07 07:05:16;;;;;;;;;;;;;;;22.39;nan;99313.22;4963102;28;19922;-72
2022/06/07 07:07:46;;;;;;;;;;;;;;;22.48;nan;99312.91;4964582;28;19973;-74
2022/06/07 07:10:18;;;;;;;;;;;;;;;22.53;nan;99315.75;4963093;28;19918;-73
2022/06/07 07:12:44;;;;;;;;;;;;;;;22.58;nan;99323.97;4962052;28;20367;-72
2022/06/07 07:15:13;;;;;;;;;;;;;;;22.62;nan;99315.22;4983847;28;19925;-74
2022/06/07 07:17:47;;;;;;;;;;;;;;;22.73;nan;99321.75;4975407;28;19918;-74
2022/06/07 07:20:12;;;;;;;;;;;;;;;22.85;nan;99325.31;4963256;28;19957;-75
2022/06/07 07:22:41;;;;;;;;;;;;;;;22.94;nan;99334.69;4991495;28;19918;-75
2022/06/07 07:25:09;;;;;;;;;;;;;;;22.99;nan;99326.75;4960506;28;19948;-75
2022/06/07 07:27:36;;;;;;;;;;;;;;;23.13;nan;99333.59;4979698;28;19924;-75
2022/06/07 07:30:01;;;;;;;;;;;;;;;23.27;nan;99329.66;4961206;28;20442;-78
2022/06/07 07:32:31;;;;;;;;;;;;;;;23.37;nan;99336.34;4979638;28;19926;-75
2022/06/07 07:34:57;;;;;;;;;;;;;;;23.38;nan;99329.94;4962367;28;19918;-77
2022/06/07 07:37:27;;;;;;;;;;;;;;;23.47;nan;99328.56;4977769;28;19918;-77
2022/06/07 07:40:06;;;;;;;;;;;;;;;23.58;nan;99330.44;4959889;28;20370;-77
2022/06/07 07:42:32;;;;;;;;;;;;;;;23.61;nan;99324.63;4978664;28;19958;-76
2022/06/07 07:45:06;;;;;;;;;;;;;;;23.57;nan;99323.41;4979078;28;20381;-76
2022/06/07 07:47:32;;;;;;;;;;;;;;;23.61;nan;99319.22;4961490;28;19965;-80
2022/06/07 07:49:58;;;;;;;;;;;;;;;23.58;nan;99319.66;4962289;28;19953;-79
2022/06/07 07:55:32;;;;;;;;;;;;;;;23.62;nan;99324.34;4961368;28;19926;-79
2022/06/07 07:58:00;;;;;;;;;;;;;;;23.66;nan;99327.44;4964915;28;19925;-79
2022/06/07 08:00:28;;;;;;;;;;;;;;;23.69;nan;99326.94;4960692;28;20008;-78
2022/06/07 08:03:01;;;;;;;;;;;;;;;23.66;nan;99327.44;4977933;28;19922;-78
2022/06/07 08:05:32;;;;;;;;;;;;;;;23.63;nan;99338.66;4974464;28;20005;-79
2022/06/07 08:07:58;;;;;;;;;;;;;;;23.64;nan;99329.53;4976910;28;20508;-78
2022/06/07 08:10:24;;;;;;;;;;;;;;;23.63;nan;99333.25;4961292;28;19914;-79
2022/06/07 08:12:49;;;;;;;;;;;;;;;23.64;nan;99334.91;4961303;28;19925;-79
2022/06/07 08:15:15;;;;;;;;;;;;;;;23.61;nan;99330.81;4962378;28;20012;-78
2022/06/07 08:17:41;;;;;;;;;;;;;;;23.72;nan;99331.06;4961337;28;20295;-79
2022/06/07 08:26:43;;;;;;;;;;;;;;;24.07;nan;99318.41;4962943;28;19960;-79
2022/06/07 08:29:09;;;;;;;;;;;;;;;24.08;nan;99328.97;4960179;28;19961;-79
2022/06/07 08:31:34;;;;;;;;;;;;;;;24.12;nan;99320.38;4963265;28;19918;-80
2022/06/07 08:39:29;;;;;;;;;;;;;;;24.55;nan;99325.41;4960919;28;19965;-76
2022/06/07 08:42:15;;;;;;;;;;;;;;;24.56;nan;99322.47;4960038;28;19919;-76
2022/06/07 08:44:45;;;;;;;;;;;;;;;24.53;nan;99316.72;4958992;28;19965;-79
2022/06/07 08:47:17;;;;;;;;;;;;;;;24.48;nan;99304.78;4964212;28;20315;-79
2022/06/07 08:49:42;;;;;;;;;;;;;;;24.57;nan;99313.28;4962034;28;19928;-78
2022/06/07 08:52:13;;;;;;;;;;;;;;;24.65;nan;99317.50;4972811;28;20430;-75
2022/06/07 08:54:39;;;;;;;;;;;;;;;24.64;nan;99319.38;4960002;28;19919;-75
2022/06/07 08:57:13;;;;;;;;;;;;;;;24.59;nan;99313.88;4968960;28;19996;-74
2022/06/07 08:59:39;;;;;;;;;;;;;;;24.63;nan;99309.63;4963629;28;20332;-73
2022/06/07 09:02:16;;;;;;;;;;;;;;;24.76;nan;99305.84;4962840;28;19918;-73
2022/06/07 09:04:42;;;;;;;;;;;;;;;24.80;nan;99301.59;4967820;28;19980;-73
2022/06/07 09:07:13;;;;;;;;;;;;;;;24.81;nan;99308.63;4966942;28;19922;-74
2022/06/07 09:12:28;;;;;;;;;;;;;;;24.82;nan;99297.59;4965124;28;20593;-74
2022/06/07 09:15:03;;;;;;;;;;;;;;;24.85;nan;99294.44;4963129;28;19981;-74
2022/06/07 09:17:39;;;;;;;;;;;;;;;24.82;nan;99294.91;4967581;28;20326;-73
2022/06/07 09:20:07;;;;;;;;;;;;;;;24.81;nan;99295.97;4965970;28;20370;-74
2022/06/07 09:22:59;;;;;;;;;;;;;;;24.82;nan;99294.91;4963107;28;19921;-74
2022/06/07 09:25:24;;;;;;;;;;;;;;;24.96;nan;99291.94;4967053;28;19924;-74
2022/06/07 09:27:49;;;;;;;;;;;;;;;25.00;nan;99290.41;4963956;28;19967;-74
2022/06/07 09:30:29;;;;;;;;;;;;;;;24.96;nan;99297.34;4966078;28;19922;-74
2022/06/07 09:32:55;;;;;;;;;;;;;;;24.90;nan;99295.63;4964372;28;19926;-73
2022/06/07 09:35:23;;;;;;;;;;;;;;;24.86;nan;99295.22;4965315;28;20350;-74
2022/06/07 09:37:51;;;;;;;;;;;;;;;24.85;nan;99299.84;4963772;28;19918;-75
2022/06/07 09:40:16;;;;;;;;;;;;;;;25.00;nan;99301.19;4965463;28;19972;-75
2022/06/07 09:42:42;;;;;;;;;;;;;;;25.08;nan;99293.53;4962995;28;19922;-77
2022/06/07 09:45:28;;;;;;;;;;;;;;;25.14;nan;99291.75;4966110;28;19929;-75
2022/06/07 09:47:54;;;;;;;;;;;;;;;25.22;nan;99294.84;4964176;28;19925;-73
2022/06/07 09:50:19;;;;;;;;;;;;;;;25.29;nan;99289.28;4963798;28;19918;-74
2022/06/07 09:52:46;;;;;;;;;;;;;;;25.32;nan;99286.13;4964494;28;19940;-73
2022/06/07 09:55:12;;;;;;;;;;;;;;;25.26;nan;99284.41;4965409;28;19943;-74
2022/06/07 09:57:39;;;;;;;;;;;;;;;25.33;nan;99293.13;4974799;28;20006;-73
2022/06/07 10:00:11;;;;;;;;;;;;;;;25.37;nan;99291.59;4962994;28;20450;-74
2022/06/07 10:03:00;;;;;;;;;;;;;;;25.41;nan;99298.13;4960362;28;19925;-74
2022/06/07 10:05:35;;;;;;;;;;;;;;;25.45;nan;99285.75;4967682;28;20000;-74
2022/06/07 10:08:13;;;;;;;;;;;;;;;25.44;nan;99276.06;4971136;28;19950;-75
2022/06/07 10:10:43;;;;;;;;;;;;;;;25.49;nan;99267.19;4968455;28;20398;-77
2022/06/07 10:13:14;;;;;;;;;;;;;;;25.62;nan;99262.28;4968037;28;19953;-74
2022/06/07 10:15:44;;;;;;;;;;;;;;;25.77;nan;99271.72;4962428;28;19961;-75
2022/06/07 10:18:36;;;;;;;;;;;;;;;25.88;nan;99263.50;4970229;28;19965;-74
2022/06/07 10:21:20;;;;;;;;;;;;;;;25.94;nan;99261.69;4964889;28;20017;-74
2022/06/07 10:23:51;;;;;;;;;;;;;;;25.96;nan;99267.66;4981235;28;20025;-77
2022/06/07 10:26:35;;;;;;;;;;;;;;;25.94;nan;99276.00;4962532;28;19926;-76
2022/06/07 10:29:19;;;;;;;;;;;;;;;26.06;nan;99263.19;4961452;28;19918;-77
2022/06/07 10:32:02;;;;;;;;;;;;;;;26.20;nan;99271.78;4966610;28;20379;-74
2022/06/07 10:34:38;;;;;;;;;;;;;;;26.22;nan;99266.09;4963913;28;20048;-74
2022/06/07 10:37:10;;;;;;;;;;;;;;;26.32;nan;99258.97;4966971;28;19922;-72
2022/06/07 10:39:41;;;;;;;;;;;;;;;26.45;nan;99258.56;4962151;28;19992;-73
2022/06/07 10:42:26;;;;;;;;;;;;;;;26.56;nan;99250.59;4965995;28;20383;-74
2022/06/07 10:45:14;;;;;;;;;;;;;;;26.60;nan;99259.81;4962987;28;19973;-72
2022/06/07 10:47:49;;;;;;;;;;;;;;;26.51;nan;99264.06;4967192;28;20025;-73
2022/06/07 10:50:23;;;;;;;;;;;;;;;26.42;nan;99256.38;4967525;28;19925;-73
2022/06/07 10:52:51;;;;;;;;;;;;;;;26.35;nan;99254.94;4961211;28;20367;-74
2022/06/07 10:55:22;;;;;;;;;;;;;;;26.27;nan;99245.38;4964825;28;19939;-73
2022/06/07 10:57:48;;;;;;;;;;;;;;;26.21;nan;99243.66;4962315;28;20009;-73
2022/06/07 11:00:19;;;;;;;;;;;;;;;26.16;nan;99240.88;4964722;28;19918;-72
2022/06/07 11:02:51;;;;;;;;;;;;;;;26.12;nan;99238.94;4965068;28;19929;-73
2022/06/07 11:10:59;;;;;;;;;;;;;;;26.22;nan;99239.88;4963713;28;19973;-73
2022/06/07 11:13:29;;;;;;;;;;;;;;;26.23;nan;99224.47;4962134;28;19918;-76
2022/06/07 11:15:58;;;;;;;;;;;;;;;26.19;nan;99228.75;4960633;28;19918;-75
2022/06/07 11:18:24;;;;;;;;;;;;;;;26.17;nan;99237.09;4961787;28;19914;-76
2022/06/07 11:21:02;;;;;;;;;;;;;;;26.27;nan;99221.03;4960676;28;20020;-76
2022/06/07 11:23:32;;;;;;;;;;;;;;;26.28;nan;99232.66;4961237;28;19960;-75
2022/06/07 11:25:57;;;;;;;;;;;;;;;26.21;nan;99232.84;4961542;28;20022;-75
2022/06/07 11:28:27;;;;;;;;;;;;;;;26.20;nan;99228.50;4959251;28;19997;-74
2022/06/07 11:30:53;;;;;;;;;;;;;;;26.19;nan;99229.56;4963196;28;19926;-75
2022/06/07 11:33:33;;;;;;;;;;;;;;;26.30;nan;99223.25;4963679;28;19922;-73
2022/06/07 11:36:05;;;;;;;;;;;;;;;26.38;nan;99217.38;4963236;28;20009;-73
2022/06/07 11:38:31;;;;;;;;;;;;;;;26.49;nan;99223.72;4962132;28;19918;-70
2022/06/07 11:44:00;;;;;;;;;;;;;;;26.65;nan;99213.88;4960898;28;20359;-69
2022/06/07 11:46:35;;;;;;;;;;;;;;;26.75;nan;99208.56;4960852;28;19929;-72
2022/06/07 11:49:23;;;;;;;;;;;;;;;26.75;nan;99205.84;4962341;28;19943;-73
2022/06/07 11:51:59;;;;;;;;;;;;;;;26.91;nan;99204.97;4960880;28;19919;-72
2022/06/07 11:54:25;;;;;;;;;;;;;;;27.05;nan;99200.75;4959119;28;19922;-70
2022/06/07 11:56:52;;;;;;;;;;;;;;;27.07;nan;99197.78;4958808;28;19952;-73
2022/06/07 11:59:18;;;;;;;;;;;;;;;27.14;nan;99199.22;4959221;28;19922;-72
2022/06/07 12:02:06;;;;;;;;;;;;;;;27.19;nan;99196.53;4961742;28;19933;-73
2022/06/07 12:04:32;;;;;;;;;;;;;;;27.10;nan;99195.34;4981057;28;20025;-72
2022/06/07 12:07:16;;;;;;;;;;;;;;;27.21;nan;99197.09;4958561;28;20018;-72
2022/06/07 12:09:47;;;;;;;;;;;;;;;27.27;nan;99196.03;4965377;28;20069;-72
2022/06/07 12:12:37;;;;;;;;;;;;;;;27.40;nan;99185.81;4956715;28;19933;-72
2022/06/07 12:15:20;;;;;;;;;;;;;;;27.42;nan;99179.06;4962766;28;19926;-73
2022/06/07 12:17:54;;;;;;;;;;;;;;;28.19;nan;99183.03;4960408;28;19918;-73
2022/06/07 12:20:25;;;;;;;;;;;;;;;28.67;nan;99174.47;4965703;28;19918;-73
2022/06/07 12:22:50;;;;;;;;;;;;;;;30.21;nan;99172.09;4961594;28;19919;-74
2022/06/07 12:25:21;;;;;;;;;;;;;;;31.84;nan;99166.97;4962284;28;19925;-71
2022/06/07 12:27:51;;;;;;;;;;;;;;;33.85;nan;99155.09;4961656;28;19949;-71
2022/06/07 12:30:36;;;;;;;;;;;;;;;35.66;nan;99160.09;4960815;28;19923;-72
2022/06/07 12:33:17;;;;;;;;;;;;;;;35.57;nan;99156.50;4961831;28;19976;-73
2022/06/07 12:35:51;;;;;;;;;;;;;;;37.38;nan;99140.97;4956379;28;19918;-72
2022/06/07 12:38:16;;;;;;;;;;;;;;;38.01;nan;99128.22;4965997;28;19925;-72
2022/06/07 12:40:44;;;;;;;;;;;;;;;37.12;nan;99129.25;4958067;28;20302;-73
2022/06/07 12:43:20;;;;;;;;;;;;;;;36.52;nan;99130.09;4959116;28;19973;-72
2022/06/07 12:45:54;;;;;;;;;;;;;;;38.22;nan;99115.31;4964320;28;19918;-72
2022/06/07 12:48:21;;;;;;;;;;;;;;;38.61;nan;99115.97;4959826;28;19925;-71
2022/06/07 12:50:46;;;;;;;;;;;;;;;39.20;nan;99114.56;4961845;28;19918;-72
2022/06/07 12:53:39;;;;;;;;;;;;;;;39.76;nan;99122.34;4960177;28;20316;-71
2022/06/07 12:56:12;;;;;;;;;;;;;;;39.01;nan;99106.03;4964396;28;20386;-70
2022/06/07 12:58:46;;;;;;;;;;;;;;;37.18;nan;99105.91;4960625;28;19918;-72
2022/06/07 13:01:30;;;;;;;;;;;;;;;38.80;nan;99108.00;4963322;28;20082;-71
2022/06/07 13:03:57;;;;;;;;;;;;;;;38.54;nan;99097.22;4961707;28;20417;-71
2022/06/07 13:06:23;;;;;;;;;;;;;;;38.65;nan;99100.34;4978826;28;20543;-72
2022/06/07 13:09:03;;;;;;;;;;;;;;;39.23;nan;99097.31;4962227;28;19941;-70
2022/06/07 13:11:31;;;;;;;;;;;;;;;39.65;nan;99099.91;4961609;28;20439;-71
2022/06/07 13:13:59;;;;;;;;;;;;;;;38.42;nan;99084.16;4964562;28;19926;-71
2022/06/07 13:16:38;;;;;;;;;;;;;;;38.00;nan;99088.03;4961546;28;19924;-72
2022/06/07 13:19:13;;;;;;;;;;;;;;;38.58;nan;99080.84;4961055;28;20004;-73
2022/06/07 13:21:41;;;;;;;;;;;;;;;39.50;nan;99079.31;4963097;28;19957;-72
2022/06/07 13:24:18;;;;;;;;;;;;;;;37.41;nan;99077.00;4963217;28;20382;-71
2022/06/07 13:26:44;;;;;;;;;;;;;;;37.11;nan;99080.88;4962534;28;20009;-70
2022/06/07 13:29:13;;;;;;;;;;;;;;;38.25;nan;99073.28;4962749;28;19921;-71
2022/06/07 13:31:41;;;;;;;;;;;;;;;37.80;nan;99072.31;4960526;28;19941;-75
2022/06/07 13:34:13;;;;;;;;;;;;;;;38.16;nan;99064.31;4964882;28;19922;-76
2022/06/07 13:36:40;;;;;;;;;;;;;;;38.81;nan;99074.59;4959712;28;19956;-75
2022/06/07 13:39:06;;;;;;;;;;;;;;;39.96;nan;99064.22;4962325;28;19918;-74
2022/06/07 13:41:44;;;;;;;;;;;;;;;39.75;nan;99060.78;4966163;28;20298;-76
2022/06/07 13:44:09;;;;;;;;;;;;;;;37.28;nan;99061.56;4958545;28;19972;-73
2022/06/07 13:46:50;;;;;;;;;;;;;;;37.07;nan;99055.13;4962993;28;19949;-74
2022/06/07 13:54:54;;;;;;;;;;;;;;;37.18;nan;99056.41;4961328;28;20394;-73
2022/06/07 13:57:22;;;;;;;;;;;;;;;36.39;nan;99045.88;4979703;28;20400;-73
2022/06/07 13:59:49;;;;;;;;;;;;;;;36.40;nan;99036.53;4963697;28;20012;-72
2022/06/07 14:02:15;;;;;;;;;;;;;;;36.99;nan;99039.47;4966340;28;20009;-74
2022/06/07 14:04:40;;;;;;;;;;;;;;;38.65;nan;99036.94;4978084;28;20039;-74
2022/06/07 14:07:12;;;;;;;;;;;;;;;39.70;nan;99039.72;4964999;28;19981;-73